createdAt,value
2022-08-23T00:02:00.416Z,19.37
2022-08-23T00:04:35.321Z,19.30
2022-08-23T00:07:02.996Z,19.35
2022-08-23T00:09:29.498Z,19.31
2022-08-23T00:12:10.119Z,19.36
2022-08-23T00:14:39.786Z,19.38
2022-08-23T00:17:09.913Z,19.36
2022-08-23T00:19:37.138Z,19.32
2022-08-23T00:22:04.328Z,19.32
2022-08-23T00:24:31.072Z,19.32
2022-08-23T00:27:04.926Z,19.31
2022-08-23T00:29:40.862Z,19.24
2022-08-23T00:32:10.844Z,19.20
2022-08-23T00:34:38.221Z,19.16
2022-08-23T00:37:04.965Z,19.09
2022-08-23T00:39:32.044Z,19.02
2022-08-23T00:42:23.985Z,18.92
2022-08-23T00:45:10.241Z,18.88
2022-08-23T00:47:39.757Z,18.70
2022-08-23T00:50:26.464Z,18.74
2022-08-23T00:53:14.633Z,18.69
2022-08-23T00:55:44.720Z,18.66
2022-08-23T00:58:13.623Z,18.60
2022-08-23T01:00:40.482Z,18.62
2022-08-23T01:03:09.198Z,18.60
2022-08-23T01:05:47.552Z,18.59
2022-08-23T01:08:14.220Z,18.65
2022-08-23T01:10:49.724Z,18.71
2022-08-23T01:13:30.028Z,18.78
2022-08-23T01:16:06.546Z,18.75
2022-08-23T01:18:34.138Z,18.68
2022-08-23T01:21:13.201Z,18.62
2022-08-23T01:23:43.616Z,18.55
2022-08-23T01:26:11.370Z,18.51
2022-08-23T01:28:40.862Z,18.47
2022-08-23T01:31:14.016Z,18.50
2022-08-23T01:33:41.949Z,18.60
2022-08-23T01:36:11.684Z,18.64
2022-08-23T01:38:38.196Z,18.55
2022-08-23T01:41:06.520Z,18.48
2022-08-23T01:43:33.690Z,18.45
2022-08-23T01:46:09.179Z,18.39
2022-08-23T01:48:35.981Z,18.35
2022-08-23T01:51:02.912Z,18.27
2022-08-23T01:53:29.381Z,18.15
2022-08-23T01:55:55.828Z,18.16
2022-08-23T01:58:22.599Z,18.08
2022-08-23T02:00:49.077Z,18.02
2022-08-23T02:03:15.826Z,18.02
2022-08-23T02:05:42.884Z,18.01
2022-08-23T02:08:28.547Z,17.92
2022-08-23T02:10:55.042Z,17.91
2022-08-23T02:13:22.214Z,17.86
2022-08-23T02:15:51.370Z,17.75
2022-08-23T02:18:20.491Z,17.70
2022-08-23T02:20:50.006Z,17.63
2022-08-23T02:23:17.088Z,17.39
2022-08-23T02:25:44.289Z,17.51
2022-08-23T02:28:11.244Z,17.45
2022-08-23T02:30:38.177Z,17.40
2022-08-23T02:33:05.020Z,17.31
2022-08-23T02:35:33.652Z,17.24
2022-08-23T02:38:08.561Z,17.18
2022-08-23T02:40:35.791Z,17.18
2022-08-23T02:43:03.626Z,17.08
2022-08-23T02:45:30.169Z,17.10
2022-08-23T02:47:57.433Z,17.05
2022-08-23T02:50:24.429Z,17.00
2022-08-23T02:52:50.858Z,16.99
2022-08-23T02:55:17.476Z,16.99
2022-08-23T02:57:44.097Z,16.97
2022-08-23T03:00:12.142Z,16.94
2022-08-23T03:02:39.032Z,16.94
2022-08-23T03:05:07.479Z,16.91
2022-08-23T03:07:34.019Z,16.79
2022-08-23T03:10:01.526Z,16.87
2022-08-23T03:12:28.233Z,16.84
2022-08-23T03:14:54.625Z,16.82
2022-08-23T03:17:20.970Z,16.81
2022-08-23T03:19:48.161Z,16.79
2022-08-23T03:22:14.900Z,16.77
2022-08-23T03:24:41.357Z,16.76
2022-08-23T03:27:08.143Z,16.73
2022-08-23T03:29:34.616Z,16.73
2022-08-23T03:32:01.730Z,16.73
2022-08-23T03:34:28.225Z,16.73
2022-08-23T03:36:54.669Z,16.75
2022-08-23T03:39:21.077Z,16.77
2022-08-23T03:41:47.893Z,16.71
2022-08-23T03:44:14.823Z,16.75
2022-08-23T03:46:42.307Z,16.73
2022-08-23T03:49:08.977Z,16.73
2022-08-23T03:51:35.457Z,16.76
2022-08-23T03:54:02.436Z,16.74
2022-08-23T03:56:34.807Z,16.73
2022-08-23T03:59:11.522Z,16.74
2022-08-23T04:01:37.982Z,16.73
2022-08-23T04:04:04.584Z,16.71
2022-08-23T04:06:32.945Z,16.69
2022-08-23T04:09:00.122Z,16.62
2022-08-23T04:11:27.582Z,16.50
2022-08-23T04:13:54.410Z,16.62
2022-08-23T04:16:20.995Z,16.62
2022-08-23T04:18:47.617Z,16.58
2022-08-23T04:21:18.636Z,16.57
2022-08-23T04:23:45.543Z,16.54
2022-08-23T04:26:12.086Z,16.50
2022-08-23T04:28:38.830Z,16.45
2022-08-23T04:31:06.140Z,16.44
2022-08-23T04:33:34.324Z,16.42
2022-08-23T04:36:02.401Z,16.43
2022-08-23T04:38:28.970Z,16.46
2022-08-23T04:41:14.584Z,16.47
2022-08-23T04:43:42.443Z,16.43
2022-08-23T04:46:09.780Z,16.47
2022-08-23T04:48:36.596Z,16.45
2022-08-23T04:51:03.695Z,16.46
2022-08-23T04:53:30.415Z,16.49
2022-08-23T04:55:56.824Z,16.30
2022-08-23T04:58:23.292Z,16.48
2022-08-23T05:00:51.755Z,16.48
2022-08-23T05:03:18.222Z,16.50
2022-08-23T05:05:44.591Z,16.51
2022-08-23T05:08:11.402Z,16.53
2022-08-23T05:10:38.253Z,16.53
2022-08-23T05:13:04.644Z,16.54
2022-08-23T05:15:31.085Z,16.53
2022-08-23T05:17:57.557Z,16.52
2022-08-23T05:20:24.134Z,16.52
2022-08-23T05:22:50.517Z,16.51
2022-08-23T05:25:16.996Z,16.50
2022-08-23T05:27:44.036Z,16.49
2022-08-23T05:30:15.173Z,16.50
2022-08-23T05:32:42.012Z,16.43
2022-08-23T05:35:08.842Z,16.55
2022-08-23T05:37:35.213Z,16.57
2022-08-23T05:40:01.741Z,16.59
2022-08-23T05:42:28.173Z,16.58
2022-08-23T05:44:54.620Z,16.58
2022-08-23T05:47:24.838Z,16.63
2022-08-23T05:49:51.632Z,16.64
2022-08-23T05:52:18.003Z,16.66
2022-08-23T05:54:44.401Z,16.66
2022-08-23T05:57:11.377Z,16.70
2022-08-23T05:59:37.792Z,16.74
2022-08-23T06:02:04.309Z,16.77
2022-08-23T06:04:30.870Z,16.81
2022-08-23T06:06:58.805Z,16.85
2022-08-23T06:09:26.281Z,16.96
2022-08-23T06:11:53.069Z,17.08
2022-08-23T06:14:19.943Z,17.19
2022-08-23T06:16:49.554Z,17.21
2022-08-23T06:19:18.862Z,17.13
2022-08-23T06:21:45.917Z,17.24
2022-08-23T06:24:13.137Z,17.25
2022-08-23T06:26:45.123Z,17.29
2022-08-23T06:29:14.371Z,17.32
2022-08-23T06:31:49.559Z,17.37
2022-08-23T06:34:19.018Z,17.41
2022-08-23T06:36:47.625Z,17.44
2022-08-23T06:39:16.116Z,17.52
2022-08-23T06:41:42.673Z,17.50
2022-08-23T06:44:09.549Z,17.65
2022-08-23T06:46:36.612Z,17.70
2022-08-23T06:49:05.318Z,17.78
2022-08-23T06:51:39.228Z,17.87
2022-08-23T06:54:08.609Z,17.95
2022-08-23T06:56:36.988Z,18.06
2022-08-23T06:59:06.220Z,17.90
2022-08-23T07:01:46.976Z,18.27
2022-08-23T07:04:16.513Z,18.39
2022-08-23T07:06:43.076Z,18.48
2022-08-23T07:09:09.501Z,18.56
2022-08-23T07:11:36.229Z,18.64
2022-08-23T07:14:05.361Z,18.79
2022-08-23T07:16:40.735Z,18.87
2022-08-23T07:19:07.474Z,18.97
2022-08-23T07:21:33.925Z,19.06
2022-08-23T07:24:00.353Z,19.13
2022-08-23T07:26:27.473Z,19.21
2022-08-23T07:28:57.015Z,19.33
2022-08-23T07:31:30.781Z,19.47
2022-08-23T07:34:02.177Z,19.58
2022-08-23T07:36:30.705Z,19.69
2022-08-23T07:38:57.725Z,19.78
2022-08-23T07:41:31.134Z,19.77
2022-08-23T07:44:02.218Z,20.00
2022-08-23T07:46:31.287Z,20.12
2022-08-23T07:48:59.575Z,20.21
2022-08-23T07:51:28.037Z,20.36
2022-08-23T07:53:54.590Z,20.50
2022-08-23T07:56:21.890Z,20.56
2022-08-23T07:58:48.286Z,20.65
2022-08-23T08:01:18.453Z,20.79
2022-08-23T08:03:46.904Z,20.91
2022-08-23T08:06:18.784Z,20.97
2022-08-23T08:08:45.877Z,21.13
2022-08-23T08:11:16.405Z,21.25
2022-08-23T08:13:44.757Z,21.32
2022-08-23T08:16:22.710Z,21.41
2022-08-23T08:18:49.500Z,21.51
2022-08-23T08:21:17.860Z,21.64
2022-08-23T08:23:44.653Z,21.65
2022-08-23T08:26:12.233Z,21.64
2022-08-23T08:28:40.661Z,21.85
2022-08-23T08:31:08.053Z,21.93
2022-08-23T08:33:35.317Z,22.04
2022-08-23T08:36:02.063Z,22.16
2022-08-23T08:38:30.582Z,22.17
2022-08-23T08:41:18.146Z,22.51
2022-08-23T08:44:13.607Z,22.67
2022-08-23T08:46:45.877Z,22.84
2022-08-23T08:49:42.797Z,23.02
2022-08-23T08:52:15.296Z,23.24
2022-08-23T08:54:48.005Z,23.41
2022-08-23T08:57:25.274Z,23.63
2022-08-23T09:00:04.841Z,23.87
2022-08-23T09:02:34.972Z,24.25
2022-08-23T09:05:06.842Z,24.36
2022-08-23T09:07:51.814Z,24.72
2022-08-23T09:10:58.206Z,25.08
2022-08-23T09:13:46.155Z,25.32
2022-08-23T09:17:00.231Z,25.63
2022-08-23T09:19:26.814Z,26.00
2022-08-23T09:22:00.645Z,26.27
2022-08-23T09:24:27.561Z,26.50
2022-08-23T09:26:54.254Z,26.67
2022-08-23T09:29:29.320Z,26.86
2022-08-23T09:32:02.031Z,27.12
2022-08-23T09:34:37.066Z,27.49
2022-08-23T09:37:13.657Z,27.95
2022-08-23T09:40:20.629Z,28.34
2022-08-23T09:43:04.234Z,28.75
2022-08-23T09:45:39.662Z,29.19
2022-08-23T09:48:11.754Z,29.55
2022-08-23T09:50:45.444Z,29.82
2022-08-23T09:53:14.545Z,29.87
2022-08-23T09:55:54.504Z,30.14
2022-08-23T09:58:40.373Z,30.65
2022-08-23T10:01:18.204Z,31.02
2022-08-23T10:03:46.218Z,31.19
2022-08-23T10:06:31.362Z,31.67
2022-08-23T10:09:02.106Z,32.22
2022-08-23T10:11:31.845Z,32.67
2022-08-23T10:13:58.242Z,32.86
2022-08-23T10:16:34.318Z,33.34
2022-08-23T10:19:10.466Z,33.72
2022-08-23T10:22:23.116Z,34.00
2022-08-23T10:25:02.449Z,34.30
2022-08-23T10:28:18.837Z,34.64
2022-08-23T10:30:45.299Z,35.06
2022-08-23T10:33:29.676Z,35.14
2022-08-23T10:36:15.766Z,35.27
2022-08-23T10:38:45.102Z,35.17
2022-08-23T10:41:33.333Z,35.22
2022-08-23T10:44:09.011Z,35.42
2022-08-23T10:46:42.684Z,35.28
2022-08-23T10:49:13.223Z,35.28
2022-08-23T10:51:44.694Z,35.37
2022-08-23T10:54:18.613Z,35.28
2022-08-23T10:56:48.863Z,35.49
2022-08-23T10:59:23.880Z,35.63
2022-08-23T11:02:03.024Z,35.91
2022-08-23T11:05:00.896Z,36.20
2022-08-23T11:07:28.952Z,36.16
2022-08-23T11:10:39.422Z,36.42
2022-08-23T11:13:25.499Z,36.52
2022-08-23T11:16:01.297Z,36.62
2022-08-23T11:18:33.646Z,36.26
2022-08-23T11:21:02.245Z,35.84
2022-08-23T11:23:31.380Z,35.92
2022-08-23T11:25:57.713Z,36.03
2022-08-23T11:28:24.031Z,36.08
2022-08-23T11:31:17.136Z,36.09
2022-08-23T11:34:08.548Z,36.20
2022-08-23T11:36:36.094Z,36.14
2022-08-23T11:39:09.965Z,36.34
2022-08-23T11:41:54.316Z,36.16
2022-08-23T11:44:35.269Z,36.09
2022-08-23T11:47:06.757Z,36.01
2022-08-23T11:49:44.009Z,36.10
2022-08-23T11:52:35.199Z,36.01
2022-08-23T11:55:17.361Z,35.86
2022-08-23T11:58:02.334Z,35.59
2022-08-23T12:00:53.768Z,35.69
2022-08-23T12:03:33.904Z,35.59
2022-08-23T12:06:34.513Z,35.85
2022-08-23T12:09:13.402Z,36.21
2022-08-23T12:11:54.690Z,36.27
2022-08-23T12:14:42.793Z,36.07
2022-08-23T12:17:12.199Z,36.17
2022-08-23T12:20:05.367Z,36.14
2022-08-23T12:23:04.094Z,35.88
2022-08-23T12:25:31.924Z,35.53
2022-08-23T12:28:29.830Z,35.41
2022-08-23T12:31:20.044Z,35.50
2022-08-23T12:34:09.652Z,35.63
2022-08-23T12:37:05.462Z,34.99
2022-08-23T12:39:40.091Z,34.10
2022-08-23T12:42:15.579Z,34.35
2022-08-23T12:44:45.074Z,34.75
2022-08-23T12:47:20.884Z,34.68
2022-08-23T12:49:58.469Z,34.41
2022-08-23T12:52:28.166Z,34.53
2022-08-23T12:54:57.734Z,34.75
2022-08-23T12:57:39.430Z,34.94
2022-08-23T13:00:21.601Z,34.95
2022-08-23T13:03:15.828Z,35.09
2022-08-23T13:06:02.089Z,34.88
2022-08-23T13:08:42.693Z,34.89
2022-08-23T13:11:12.900Z,34.67
2022-08-23T13:13:44.025Z,33.92
2022-08-23T13:16:29.907Z,33.91
2022-08-23T13:19:14.667Z,33.87
2022-08-23T13:21:41.092Z,34.18
2022-08-23T13:24:31.410Z,34.28
2022-08-23T13:27:21.342Z,34.19
2022-08-23T13:30:08.546Z,33.93
2022-08-23T13:32:37.085Z,33.62
2022-08-23T13:35:23.826Z,33.34
2022-08-23T13:37:52.304Z,33.67
2022-08-23T13:40:25.682Z,33.99
2022-08-23T13:42:58.357Z,34.19
2022-08-23T13:45:27.044Z,34.21
2022-08-23T13:48:28.757Z,34.26
2022-08-23T13:51:18.137Z,34.17
2022-08-23T13:53:44.676Z,34.06
2022-08-23T13:56:11.196Z,33.86
2022-08-23T13:58:37.896Z,33.75
2022-08-23T14:01:13.713Z,33.54
2022-08-23T14:03:40.101Z,33.42
2022-08-23T14:06:06.746Z,33.38
2022-08-23T14:08:33.198Z,33.38
2022-08-23T14:10:59.751Z,33.28
2022-08-23T14:13:29.519Z,33.04
2022-08-23T14:21:34.972Z,33.04
2022-08-23T14:24:01.355Z,33.09
2022-08-23T14:26:28.039Z,33.04
2022-08-23T14:28:54.506Z,32.89
2022-08-23T14:31:21.042Z,32.85
2022-08-23T14:33:48.309Z,32.82
2022-08-23T14:36:15.619Z,32.74
2022-08-23T14:38:42.061Z,32.56
2022-08-23T14:41:16.157Z,32.63
2022-08-23T14:43:42.513Z,32.54
2022-08-23T14:46:09.175Z,32.61
2022-08-23T14:48:36.915Z,32.65
2022-08-23T14:51:04.309Z,32.52
2022-08-23T14:53:33.870Z,32.22
2022-08-23T14:56:18.806Z,32.01
2022-08-23T14:58:47.016Z,31.89
2022-08-23T15:01:13.966Z,31.85
2022-08-23T15:03:41.822Z,31.77
2022-08-23T15:06:09.816Z,31.52
2022-08-23T15:08:36.711Z,31.36
2022-08-23T15:13:55.555Z,31.29
2022-08-23T15:16:23.275Z,31.43
2022-08-23T15:18:51.973Z,31.41
2022-08-23T15:21:19.808Z,31.41
2022-08-23T15:23:46.692Z,31.41
2022-08-23T15:26:16.511Z,31.38
2022-08-23T15:28:43.174Z,31.40
2022-08-23T15:31:12.056Z,31.26
2022-08-23T15:33:39.907Z,31.20
2022-08-23T15:36:08.596Z,31.25
2022-08-23T15:38:37.238Z,31.16
2022-08-23T15:41:04.589Z,31.15
2022-08-23T15:43:34.275Z,31.14
2022-08-23T15:46:10.351Z,31.10
2022-08-23T15:48:43.744Z,31.12
2022-08-23T15:51:10.867Z,31.00
2022-08-23T15:53:40.192Z,30.86
2022-08-23T15:56:15.410Z,30.71
2022-08-23T15:58:42.657Z,30.64
2022-08-23T16:01:10.635Z,30.70
2022-08-23T16:03:38.519Z,30.72
2022-08-23T16:06:06.329Z,30.68
2022-08-23T16:08:36.557Z,30.61
2022-08-23T16:11:05.223Z,30.52
2022-08-23T16:13:31.650Z,30.45
2022-08-23T16:15:58.215Z,30.39
2022-08-23T16:18:24.616Z,30.42
2022-08-23T16:20:54.202Z,30.38
2022-08-23T16:23:20.983Z,30.32
2022-08-23T16:25:47.345Z,30.26
2022-08-23T16:28:13.826Z,30.10
2022-08-23T16:30:40.278Z,29.94
2022-08-23T16:33:06.703Z,30.01
2022-08-23T16:35:33.129Z,29.95
2022-08-23T16:37:59.591Z,29.94
2022-08-23T16:40:26.037Z,29.89
2022-08-23T16:42:52.866Z,29.84
2022-08-23T16:45:25.803Z,29.79
2022-08-23T16:47:53.387Z,29.78
2022-08-23T16:50:19.876Z,29.75
2022-08-23T16:52:46.437Z,29.71
2022-08-23T16:55:12.971Z,29.56
2022-08-23T16:57:40.210Z,29.53
2022-08-23T17:00:10.422Z,29.50
2022-08-23T17:02:38.178Z,29.45
2022-08-23T17:05:07.482Z,29.38
2022-08-23T17:07:34.457Z,29.32
2022-08-23T17:10:00.934Z,29.26
2022-08-23T17:12:27.665Z,29.26
2022-08-23T17:14:57.058Z,29.14
2022-08-23T17:17:24.325Z,29.03
2022-08-23T17:19:50.721Z,28.82
2022-08-23T17:22:17.137Z,28.84
2022-08-23T17:24:43.505Z,28.79
2022-08-23T17:27:09.909Z,28.72
2022-08-23T17:29:45.540Z,28.67
2022-08-23T17:32:13.056Z,28.61
2022-08-23T17:34:39.571Z,28.62
2022-08-23T17:37:15.656Z,28.60
2022-08-23T17:39:42.078Z,28.49
2022-08-23T17:42:08.661Z,28.40
2022-08-23T17:44:35.409Z,28.36
2022-08-23T17:47:05.894Z,28.28
2022-08-23T17:49:33.911Z,28.20
2022-08-23T17:52:00.276Z,28.08
2022-08-23T17:54:26.606Z,27.99
2022-08-23T17:56:53.197Z,27.87
2022-08-23T17:59:20.621Z,27.70
2022-08-23T18:01:47.056Z,27.60
2022-08-23T18:04:13.485Z,27.60
2022-08-23T18:06:40.532Z,27.48
2022-08-23T18:09:07.739Z,27.40
2022-08-23T18:11:35.113Z,27.31
2022-08-23T18:14:02.076Z,27.22
2022-08-23T18:16:34.387Z,27.05
2022-08-23T18:19:03.828Z,27.04
2022-08-23T18:21:30.856Z,26.96
2022-08-23T18:23:57.884Z,26.87
2022-08-23T18:26:43.584Z,26.84
2022-08-23T18:29:12.159Z,26.73
2022-08-23T18:31:41.810Z,26.65
2022-08-23T18:34:09.069Z,26.51
2022-08-23T18:36:36.148Z,26.40
2022-08-23T18:39:04.647Z,26.33
2022-08-23T18:41:31.054Z,26.27
2022-08-23T18:43:59.132Z,26.19
2022-08-23T18:46:29.351Z,26.05
2022-08-23T18:48:59.637Z,25.91
2022-08-23T18:51:26.700Z,25.70
2022-08-23T18:53:53.129Z,25.70
2022-08-23T18:56:19.546Z,25.59
2022-08-23T18:58:46.052Z,25.43
2022-08-23T19:01:31.743Z,25.47
2022-08-23T19:04:00.764Z,25.43
2022-08-23T19:06:28.315Z,25.36
2022-08-23T19:08:54.971Z,25.30
2022-08-23T19:11:23.110Z,25.21
2022-08-23T19:13:50.892Z,25.15
2022-08-23T19:16:19.530Z,25.13
2022-08-23T19:18:49.963Z,25.03
2022-08-23T19:21:20.652Z,25.00
2022-08-23T19:23:49.477Z,24.82
2022-08-23T19:26:20.146Z,24.77
2022-08-23T19:28:47.447Z,24.73
2022-08-23T19:31:14.237Z,24.65
2022-08-23T19:33:41.310Z,24.63
2022-08-23T19:36:19.003Z,24.58
2022-08-23T19:38:56.678Z,24.46
2022-08-23T19:41:23.032Z,24.41
2022-08-23T19:43:49.481Z,24.30
2022-08-23T19:46:16.496Z,24.26
2022-08-23T19:48:45.690Z,24.22
2022-08-23T19:51:17.490Z,24.15
2022-08-23T19:54:03.741Z,24.02
2022-08-23T19:56:41.218Z,24.03
2022-08-23T19:59:30.114Z,23.99
2022-08-23T20:01:58.632Z,24.03
2022-08-23T20:04:28.149Z,24.05
2022-08-23T20:06:55.308Z,23.97
2022-08-23T20:09:22.526Z,23.92
2022-08-23T20:11:49.752Z,23.93
2022-08-23T20:14:16.153Z,23.91
2022-08-23T20:16:42.676Z,23.87
2022-08-23T20:19:10.354Z,23.80
2022-08-23T20:21:38.015Z,23.61
2022-08-23T20:24:05.651Z,23.59
2022-08-23T20:26:38.977Z,23.63
2022-08-23T20:29:05.544Z,23.58
2022-08-23T20:31:35.870Z,23.51
2022-08-23T20:34:06.793Z,23.45
2022-08-23T20:36:33.343Z,23.38
2022-08-23T20:39:01.329Z,23.31
2022-08-23T20:41:29.644Z,23.27
2022-08-23T20:43:57.054Z,23.12
2022-08-23T20:46:23.741Z,23.06
2022-08-23T20:48:51.526Z,23.12
2022-08-23T20:51:18.853Z,23.07
2022-08-23T20:53:46.292Z,23.07
2022-08-23T20:56:12.744Z,23.04
2022-08-23T20:58:39.241Z,23.01
2022-08-23T21:01:06.245Z,22.88
2022-08-23T21:03:38.370Z,22.93
2022-08-23T21:06:21.762Z,22.90
2022-08-23T21:08:50.532Z,22.87
2022-08-23T21:11:21.757Z,22.83
2022-08-23T21:13:48.424Z,22.83
2022-08-23T21:16:16.633Z,22.79
2022-08-23T21:18:44.049Z,22.75
2022-08-23T21:21:11.167Z,22.69
2022-08-23T21:23:37.924Z,22.62
2022-08-23T21:26:05.911Z,22.59
2022-08-23T21:28:32.942Z,22.53
2022-08-23T21:31:11.846Z,22.41
2022-08-23T21:33:40.327Z,22.48
2022-08-23T21:36:07.932Z,22.41
2022-08-23T21:38:34.577Z,22.22
2022-08-23T21:41:04.572Z,22.22
2022-08-23T21:43:32.608Z,22.25
2022-08-23T21:45:59.134Z,22.17
2022-08-23T21:48:25.686Z,22.15
2022-08-23T21:50:52.372Z,22.11
2022-08-23T21:53:19.873Z,22.09
2022-08-23T21:55:46.441Z,22.07
2022-08-23T21:58:13.876Z,22.06
2022-08-23T22:00:41.259Z,22.05
2022-08-23T22:03:07.892Z,22.07
2022-08-23T22:05:42.898Z,22.05
2022-08-23T22:08:10.582Z,22.10
2022-08-23T22:10:48.221Z,22.11
2022-08-23T22:13:28.616Z,22.07
2022-08-23T22:15:55.261Z,22.00
2022-08-23T22:18:21.758Z,21.94
2022-08-23T22:20:48.198Z,21.90
2022-08-23T22:23:14.547Z,21.86
2022-08-23T22:25:40.908Z,21.82
2022-08-23T22:28:08.026Z,21.77
2022-08-23T22:30:34.449Z,21.75
2022-08-23T22:33:00.809Z,21.75
2022-08-23T22:35:27.209Z,21.73
2022-08-23T22:38:12.756Z,21.74
2022-08-23T22:40:40.087Z,21.71
2022-08-23T22:43:06.461Z,21.56
2022-08-23T22:45:32.941Z,21.54
2022-08-23T22:47:59.733Z,21.59
2022-08-23T22:50:26.081Z,21.55
2022-08-23T22:52:52.425Z,21.51
2022-08-23T22:55:18.951Z,21.55
2022-08-23T22:57:45.397Z,21.52
2022-08-23T23:00:12.112Z,21.48
2022-08-23T23:02:38.935Z,21.31
2022-08-23T23:05:07.725Z,21.38
2022-08-23T23:07:52.903Z,21.32
2022-08-23T23:10:19.367Z,21.27
2022-08-23T23:12:45.950Z,21.24
2022-08-23T23:15:12.685Z,21.19
2022-08-23T23:17:39.113Z,21.13
2022-08-23T23:20:24.716Z,21.08
2022-08-23T23:22:51.767Z,21.00
2022-08-23T23:25:18.596Z,20.95
2022-08-23T23:27:45.097Z,20.89
2022-08-23T23:30:11.968Z,20.86
2022-08-23T23:32:38.548Z,20.79
2022-08-23T23:35:06.645Z,20.75
2022-08-23T23:37:33.094Z,20.72
2022-08-23T23:39:59.583Z,20.68
2022-08-23T23:42:26.018Z,20.63
2022-08-23T23:44:52.414Z,20.60
2022-08-23T23:47:18.909Z,20.58
2022-08-23T23:49:46.886Z,20.55
2022-08-23T23:52:13.313Z,20.50
2022-08-23T23:54:40.821Z,20.46
2022-08-23T23:57:07.370Z,20.42
2022-08-23T23:59:33.956Z,20.41
